Latest Weather Observations for Cobar

IDN60801

Issued at 12:34 pm EDT Monday 2 February 2015 (issued every 30 minutes, with the page automatically refreshed every 10 minutes)

About weather observations | Map of weather stations | Latest weather observations for NSW | Other Formats
Station Details ID: 048027 Name: COBAR MO Lat: -31.48 Lon: 145.83 Height: 260.0 m
Data from the previous 72 hours. | See also: Recent months at Cobar
Date/Time
EDT
Temp
°C
App
Temp
°C
Dew
Point
Rel
Hum
%
Delta-T
°C
Wind Press
QNH
hPa
Press
MSL
hPa
Rain
since 9 am
mm
Dir
 
Spd
km/h
Gust
km/h
Spd
kts
Gust
kts
02/12:00pm 27.5 23.4 6.2 25 11.3 S 17 30 9 16 1012.1 1010.6 0.0
02/11:30am 26.0 21.9 6.2 28 10.4 S 17 28 9 15 1012.4 - 0.0
02/10:30am 24.1 19.8 7.0 33 9.0 SSW 19 26 10 14 1012.7 - 0.0
02/10:00am 23.2 19.7 7.3 36 8.4 S 15 24 8 13 1012.4 - 0.0
02/09:30am 21.9 17.9 6.6 37 7.9 S 17 24 9 13 1012.6 - 0.0
02/09:00am 21.3 17.4 7.3 40 7.3 S 17 24 9 13 1012.2 1010.7 0.0
02/08:19am 19.2 15.5 6.1 42 6.6 S 15 24 8 13 1012.0 - 0.0
02/08:00am 18.5 15.0 5.3 42 6.5 S 13 19 7 10 1011.8 - 0.0
02/07:30am 17.6 14.6 4.3 41 6.4 S 9 15 5 8 1011.3 - 0.0
02/07:00am 16.2 13.2 4.2 45 5.7 SSW 9 13 5 7 1010.7 - 0.0
02/06:30am 16.2 13.1 3.6 43 5.9 SSW 9 13 5 7 1010.2 - 0.0
02/06:00am 16.5 13.0 3.5 42 6.1 SW 11 13 6 7 1009.9 1008.4 0.0
02/05:30am 17.0 13.9 3.6 41 6.3 SSW 9 11 5 6 1009.7 - 0.0
02/05:00am 17.4 14.3 3.7 40 6.5 SSW 9 13 5 7 1009.4 - 0.0
02/04:30am 17.9 14.8 3.6 38 6.8 SSW 9 13 5 7 1009.2 - 0.0
02/04:00am 18.2 15.4 3.4 37 7.0 SSW 7 11 4 6 1009.3 - 0.0
02/03:30am 18.5 15.3 3.3 36 7.2 SSW 9 13 5 7 1009.3 - 0.0
02/03:00am 18.7 15.7 3.9 37 7.1 SSW 9 11 5 6 1009.6 1008.0 0.0
02/02:30am 19.1 16.0 3.7 36 7.4 SSW 9 13 5 7 1009.8 - 0.0
02/02:00am 19.9 16.3 2.8 32 8.1 SSW 11 15 6 8 1010.0 - 0.0
02/01:30am 20.3 16.7 2.9 31 8.3 SW 11 15 6 8 1010.3 - 0.0
02/01:00am 21.1 17.1 2.6 29 8.8 SSW 13 17 7 9 1010.4 - 0.0
02/12:30am 21.8 17.3 2.3 27 9.3 SSW 15 26 8 14 1010.3 - 0.0
02/12:00am 22.3 17.7 1.8 26 9.7 SSW 15 22 8 12 1010.4 1008.9 0.0
 
Date/Time
EDT
Temp
°C
App
Temp
°C
Dew
Point
Rel
Hum
%
Delta-T
°C
Wind Press
QNH
hPa
Press
MSL
hPa
Rain
since 9 am
mm
Dir
 
Spd
km/h
Gust
km/h
Spd
kts
Gust
kts
01/11:30pm 22.7 18.6 2.2 26 9.8 SSW 13 20 7 11 1010.3 - 0.0
01/11:00pm 23.2 18.8 2.8 26 9.9 SSW 15 24 8 13 1010.2 - 0.0
01/10:30pm 23.7 19.0 3.4 26 10.0 SSW 17 24 9 13 1009.9 - 0.0
01/10:00pm 24.2 20.0 3.7 26 10.2 SSW 15 24 8 13 1009.6 - 0.0
01/09:30pm 24.7 20.1 3.6 25 10.5 SSW 17 22 9 12 1009.5 - 0.0
01/09:00pm 25.2 21.0 3.6 24 10.8 SSW 15 20 8 11 1009.3 1007.7 0.0
01/08:30pm 26.1 20.9 2.3 21 11.7 SSW 19 28 10 15 1008.9 - 0.0
01/08:00pm 27.1 21.8 1.8 19 12.4 SW 19 28 10 15 1008.6 - 0.0
01/07:30pm 28.0 22.5 1.9 18 12.9 SW 20 33 11 18 1008.3 - 0.0
01/07:00pm 28.4 22.8 1.3 17 13.3 SSW 20 33 11 18 1007.9 - 0.0
01/06:30pm 29.5 24.1 1.4 16 13.9 SSW 19 24 10 13 1007.7 - 0.0
01/06:00pm 28.8 24.1 0.6 16 13.7 WSW 15 22 8 12 1007.6 1006.1 0.0
01/05:30pm 28.4 22.9 0.5 16 13.5 SW 19 24 10 13 1007.7 - 0.0
01/05:00pm 29.5 25.5 0.6 15 14.1 S 11 24 6 13 1007.6 - 0.0
01/04:30pm 29.3 23.5 -0.3 14 14.2 WSW 20 30 11 16 1007.6 - 0.0
01/04:00pm 29.8 24.5 -0.3 14 14.5 WSW 17 28 9 15 1007.8 - 0.0
01/03:30pm 30.1 24.9 0.4 14 14.5 WSW 17 30 9 16 1008.0 - 0.0
01/03:00pm 29.5 23.7 0.2 15 14.2 WSW 20 30 11 16 1008.2 1006.7 0.0
01/02:30pm 29.3 24.1 0.1 15 14.1 W 17 35 9 19 1008.4 - 0.0
01/02:00pm 29.5 24.7 0.2 15 14.2 W 15 32 8 17 1008.9 - 0.0
01/01:30pm 29.1 24.1 1.6 17 13.6 WSW 17 26 9 14 1009.2 - 0.0
01/01:00pm 28.6 23.8 2.4 18 13.1 WSW 17 30 9 16 1009.6 - 0.0
01/12:30pm 27.7 22.3 1.2 18 12.9 W 19 30 10 16 1010.0 - 0.0
01/12:00pm 27.6 22.5 3.2 21 12.3 SW 19 30 10 16 1010.2 1008.7 0.0
01/11:30am 27.0 22.1 2.3 20 12.2 SW 17 28 9 15 1010.4 - 0.0
01/11:00am 27.1 23.4 2.5 20 12.2 W 11 20 6 11 1010.4 - 0.0
01/10:30am 25.7 22.2 3.5 23 11.1 SW 11 17 6 9 1010.4 - 0.0
01/10:00am 25.1 22.4 5.6 28 10.1 SW 9 17 5 9 1010.4 - 0.0
01/09:30am 23.8 21.0 5.1 29 9.5 S 9 15 5 8 1010.2 - 0.0
01/09:00am 22.4 19.9 4.9 32 8.8 S 7 11 4 6 1010.2 1008.7 0.0
01/08:30am 21.4 18.8 4.1 32 8.5 SSW 7 11 4 6 1010.0 - 0.0
01/08:00am 19.2 17.3 5.0 39 7.0 WNW 4 6 2 3 1009.9 - 0.0
01/07:30am 17.4 14.2 3.1 38 6.7 WSW 9 13 5 7 1009.6 - 0.0
01/07:00am 16.3 13.1 3.2 41 6.1 SW 9 11 5 6 1009.1 - 0.0
01/06:30am 16.1 12.9 3.2 42 6.0 SW 9 11 5 6 1008.8 - 0.0
01/06:00am 16.5 13.3 3.2 41 6.2 SW 9 11 5 6 1008.7 1007.1 0.0
01/05:30am 16.6 13.1 3.3 41 6.2 SW 11 11 6 6 1008.4 - 0.0
01/05:00am 16.9 13.8 3.8 41 6.2 SW 9 9 5 5 1008.6 - 0.0
01/04:30am 18.2 15.4 3.1 36 7.1 S 7 9 4 5 1008.7 - 0.0
01/04:00am 18.8 15.7 3.8 37 7.2 S 9 11 5 6 1008.6 - 0.0
01/03:30am 18.4 15.8 4.3 39 6.8 SSW 7 9 4 5 1008.8 - 0.0
01/03:00am 19.1 16.3 3.4 35 7.5 SSW 7 9 4 5 1009.0 1007.4 0.0
01/02:30am 19.9 16.7 3.1 33 8.0 S 9 11 5 6 1009.2 - 0.0
01/02:00am 20.5 17.3 2.9 31 8.4 S 9 13 5 7 1009.4 - 0.0
01/01:30am 20.1 17.0 3.5 33 8.0 S 9 11 5 6 1009.6 - 0.0
01/01:00am 19.6 17.1 4.5 37 7.4 SW 7 9 4 5 1009.8 - 0.0
01/12:30am 20.3 17.2 3.5 33 8.1 WSW 9 11 5 6 1010.0 - 0.0
01/12:00am 20.6 17.8 3.4 32 8.3 SW 7 9 4 5 1009.9 1008.4 0.0
 
Date/Time
EDT
Temp
°C
App
Temp
°C
Dew
Point
Rel
Hum
%
Delta-T
°C
Wind Press
QNH
hPa
Press
MSL
hPa
Rain
since 9 am
mm
Dir
 
Spd
km/h
Gust
km/h
Spd
kts
Gust
kts
31/11:30pm 20.6 18.3 5.7 37 7.5 SW 7 9 4 5 1009.9 - 0.0
31/11:00pm 21.4 18.9 4.7 33 8.3 SW 7 9 4 5 1010.0 - 0.0
31/10:30pm 22.4 19.1 2.7 27 9.5 SW 9 13 5 7 1010.1 - 0.0
31/10:00pm 23.4 20.1 2.5 25 10.1 SSW 9 11 5 6 1009.8 - 0.0
31/09:30pm 24.2 20.8 2.0 23 10.7 SSW 9 13 5 7 1009.4 - 0.0
31/09:00pm 25.0 21.6 1.8 22 11.2 S 9 13 5 7 1009.1 1007.4 0.0
31/08:30pm 26.0 20.8 0.2 18 12.2 SSW 17 24 9 13 1008.8 - 0.0
31/08:00pm 26.9 21.7 0.2 17 12.7 SSW 17 26 9 14 1008.3 - 0.0
31/07:30pm 27.6 23.4 1.4 18 12.8 SW 13 20 7 11 1008.2 - 0.0
31/07:00pm 28.0 21.9 0.3 16 13.3 SW 22 35 12 19 1007.7 - 0.0
31/06:30pm 28.1 22.2 1.4 18 13.1 SW 22 39 12 21 1007.8 - 0.0
31/06:00pm 28.5 22.1 0.7 16 13.5 SW 24 30 13 16 1007.9 1006.3 0.0
31/05:30pm 28.9 22.4 0.4 16 13.8 WSW 24 33 13 18 1007.9 - 0.0
31/05:00pm 28.6 22.6 0.9 16 13.5 WSW 22 28 12 15 1008.2 - 0.0
31/04:30pm 28.9 22.5 0.8 16 13.7 SSW 24 41 13 22 1008.3 - 0.0
31/04:00pm 28.4 22.9 0.9 17 13.4 SSW 19 30 10 16 1008.6 - 0.0
31/03:30pm 28.6 23.1 0.9 16 13.5 SW 19 37 10 20 1008.8 - 0.0
31/03:00pm 27.6 20.6 -0.2 16 13.2 SSW 26 39 14 21 1008.9 1007.2 0.0
31/02:30pm 27.3 20.4 0.3 17 12.9 S 26 33 14 18 1009.1 - 0.0
31/02:00pm 27.9 21.6 1.3 18 13.0 SW 24 43 13 23 1009.5 - 0.0
31/01:30pm 27.3 20.9 1.1 18 12.7 SW 24 35 13 19 1009.7 - 0.0
31/01:00pm 26.0 19.9 0.5 19 12.1 SSW 22 37 12 20 1010.1 - 0.0
31/12:30pm 26.4 20.8 1.0 19 12.2 SW 20 30 11 16 1010.2 - 0.0
31/12:00pm 24.6 19.6 1.3 21 11.1 WSW 17 26 9 14 1010.6 1009.0 0.0
31/11:30am 24.0 19.0 1.2 22 10.8 WSW 17 24 9 13 1010.8 - 0.0
31/11:00am 23.6 16.5 1.1 22 10.6 W 28 37 15 20 1011.0 - 0.0
31/10:30am 22.7 17.7 1.5 24 10.0 SSW 17 24 9 13 1011.2 - 0.0
31/10:00am 22.9 18.7 1.6 24 10.1 SSW 13 24 7 13 1011.1 - 0.0
31/09:30am 21.8 17.6 1.9 27 9.4 S 13 17 7 9 1011.2 - 0.0
31/09:00am 20.8 16.9 1.4 27 9.0 S 11 19 6 10 1011.0 1009.4 0.0
31/08:30am 19.6 16.4 0.6 28 8.6 S 7 11 4 6 1010.7 - 0.0
31/08:00am 17.8 14.8 0.5 31 7.7 SW 6 7 3 4 1010.4 - 0.0
31/07:30am 15.5 12.4 0.0 34 6.7 W 6 9 3 5 1010.2 - 0.0
31/07:00am 14.3 10.5 -0.7 35 6.3 WSW 9 11 5 6 1009.9 - 0.0
31/06:30am 14.4 11.0 -0.5 36 6.3 WSW 7 9 4 5 1009.6 - 0.0
31/06:00am 15.0 11.6 -0.5 34 6.6 SW 7 9 4 5 1009.4 1007.7 0.0
31/05:30am 15.3 11.9 -0.7 33 6.8 SSW 7 9 4 5 1009.1 - 0.0
31/05:00am 15.4 12.4 0.5 36 6.5 S 6 7 3 4 1008.9 - 0.0
31/04:30am 15.8 12.5 -0.2 33 6.9 S 7 9 4 5 1008.8 - 0.0
31/04:00am 16.1 12.8 0.3 34 6.9 SSW 7 9 4 5 1008.8 - 0.0
31/03:30am 17.2 13.4 -0.9 29 7.8 S 9 13 5 7 1008.7 - 0.0
31/03:00am 17.7 13.7 -1.9 26 8.3 S 9 13 5 7 1008.7 1007.0 0.0
31/02:30am 17.8 13.8 -2.1 25 8.4 SSW 9 13 5 7 1008.8 - 0.0
31/02:00am 18.3 13.9 -2.3 24 8.7 SSW 11 13 6 7 1009.0 - 0.0
31/01:30am 18.4 14.5 -1.7 25 8.6 SSW 9 11 5 6 1009.3 - 0.0
31/01:00am 18.6 14.8 -0.9 26 8.5 SSW 9 11 5 6 1009.5 - 0.0
31/12:30am 19.2 15.4 -0.9 25 8.8 SW 9 11 5 6 1009.6 - 0.0
31/12:00am 20.2 16.4 -0.8 24 9.3 SSW 9 11 5 6 1009.6 1007.9 0.0
 
Date/Time
EDT
Temp
°C
App
Temp
°C
Dew
Point
Rel
Hum
%
Delta-T
°C
Wind Press
QNH
hPa
Press
MSL
hPa
Rain
since 9 am
mm
Dir
 
Spd
km/h
Gust
km/h
Spd
kts
Gust
kts
30/11:30pm 21.3 17.4 -1.3 22 10.0 SSW 9 13 5 7 1009.5 - 0.0
30/11:00pm 22.4 18.0 -2.7 18 10.9 SSW 11 19 6 10 1009.5 - 0.0
30/10:30pm 23.0 18.1 -3.0 17 11.3 SSW 13 22 7 12 1009.4 - 0.0
30/10:00pm 23.7 18.5 -2.7 17 11.6 SSW 15 20 8 11 1009.2 - 0.0
30/09:30pm 24.3 19.1 -2.6 16 11.9 SSW 15 20 8 11 1008.8 - 0.0
30/09:00pm 24.9 20.1 -2.4 16 12.2 SSW 13 20 7 11 1008.3 1006.7 0.0
30/08:30pm 25.8 20.3 -2.4 15 12.7 SSW 17 28 9 15 1008.0 - 0.0
30/08:00pm 26.7 20.6 -2.0 15 13.1 SW 20 30 11 16 1007.7 - 0.0
30/07:30pm 27.6 21.2 -1.9 14 13.6 SW 22 37 12 20 1007.3 - 0.0
30/07:00pm 28.3 22.4 -2.4 13 14.1 SSW 19 32 10 17 1007.0 - 0.0
30/06:30pm 29.1 22.8 -3.6 11 14.7 SW 20 33 11 18 1006.9 - 0.0
30/06:00pm 29.3 22.7 -3.5 11 14.9 SW 22 30 12 16 1006.8 1005.2 0.0
30/05:30pm 29.5 22.4 -4.5 10 15.1 WSW 24 35 13 19 1006.9 - 0.0
30/05:00pm 29.6 22.5 -4.8 10 15.3 SW 24 37 13 20 1007.1 - 0.0
30/04:30pm 29.8 23.5 -3.6 11 15.1 SW 20 33 11 18 1007.1 - 0.0
30/04:00pm 29.6 24.0 -2.7 12 14.9 SSW 17 24 9 13 1007.5 - 0.0
30/03:30pm 29.2 22.1 -4.4 11 15.0 WSW 24 37 13 20 1007.8 - 0.0
30/03:00pm 29.1 23.4 -3.7 11 14.8 W 17 32 9 17 1008.1 1006.5 0.0
30/02:30pm 29.1 22.1 -3.2 12 14.7 WSW 24 33 13 18 1008.8 - 0.0
30/02:00pm 28.3 22.1 -3.0 13 14.2 WSW 20 33 11 18 1009.2 - 0.0
30/01:30pm 28.9 22.3 -3.3 12 14.6 SW 22 35 12 19 1009.5 - 0.0
30/01:00pm 27.9 21.4 -2.6 13 13.9 WSW 22 35 12 19 1009.9 - 0.0

Other Formats:

Comma delimited format used in spreadsheet applications
http://www.bom.gov.au/fwo/IDN60801/IDN60801.94711.axf

JavaScript Object Notation format (JSON) in row-major order
http://www.bom.gov.au/fwo/IDN60801/IDN60801.94711.json